sensor_id;sensor_type;location;lat;lon;timestamp;P1;durP1;ratioP1;P2;durP2;ratioP2
30420;SDS011;17218;54.070;10.012;2023-11-19T00:01:25;8.57;;;4.87;;
30420;SDS011;17218;54.070;10.012;2023-11-19T00:03:52;8.10;;;5.43;;
30420;SDS011;17218;54.070;10.012;2023-11-19T00:06:19;7.80;;;4.23;;
30420;SDS011;17218;54.070;10.012;2023-11-19T00:08:44;6.07;;;4.07;;
30420;SDS011;17218;54.070;10.012;2023-11-19T00:11:12;8.27;;;4.67;;
30420;SDS011;17218;54.070;10.012;2023-11-19T00:13:40;9.17;;;5.37;;
30420;SDS011;17218;54.070;10.012;2023-11-19T00:16:07;9.50;;;4.97;;
30420;SDS011;17218;54.070;10.012;2023-11-19T00:18:34;8.60;;;4.90;;
30420;SDS011;17218;54.070;10.012;2023-11-19T00:21:01;7.77;;;4.40;;
30420;SDS011;17218;54.070;10.012;2023-11-19T00:23:28;7.17;;;3.90;;
30420;SDS011;17218;54.070;10.012;2023-11-19T00:25:54;6.17;;;4.33;;
30420;SDS011;17218;54.070;10.012;2023-11-19T00:28:22;5.77;;;4.00;;
30420;SDS011;17218;54.070;10.012;2023-11-19T00:30:49;8.37;;;3.97;;
30420;SDS011;17218;54.070;10.012;2023-11-19T00:33:15;7.37;;;4.63;;
30420;SDS011;17218;54.070;10.012;2023-11-19T00:35:42;7.87;;;4.70;;
30420;SDS011;17218;54.070;10.012;2023-11-19T00:38:08;6.03;;;4.27;;
30420;SDS011;17218;54.070;10.012;2023-11-19T00:40:35;5.43;;;3.60;;
30420;SDS011;17218;54.070;10.012;2023-11-19T00:43:02;5.13;;;3.83;;
30420;SDS011;17218;54.070;10.012;2023-11-19T00:45:29;7.90;;;4.07;;
30420;SDS011;17218;54.070;10.012;2023-11-19T00:47:56;6.33;;;4.10;;
30420;SDS011;17218;54.070;10.012;2023-11-19T00:50:24;6.10;;;3.53;;
30420;SDS011;17218;54.070;10.012;2023-11-19T00:52:51;6.57;;;3.77;;
30420;SDS011;17218;54.070;10.012;2023-11-19T00:55:17;6.33;;;3.33;;
30420;SDS011;17218;54.070;10.012;2023-11-19T00:57:44;5.70;;;3.40;;
30420;SDS011;17218;54.070;10.012;2023-11-19T01:00:10;5.23;;;3.10;;
30420;SDS011;17218;54.070;10.012;2023-11-19T01:02:44;6.57;;;3.40;;
30420;SDS011;17218;54.070;10.012;2023-11-19T01:05:11;6.10;;;3.70;;
30420;SDS011;17218;54.070;10.012;2023-11-19T01:07:39;4.27;;;3.30;;
30420;SDS011;17218;54.070;10.012;2023-11-19T01:10:06;6.60;;;3.77;;
30420;SDS011;17218;54.070;10.012;2023-11-19T01:12:33;5.07;;;3.33;;
30420;SDS011;17218;54.070;10.012;2023-11-19T01:15:00;4.97;;;3.37;;
30420;SDS011;17218;54.070;10.012;2023-11-19T01:17:27;4.67;;;2.70;;
30420;SDS011;17218;54.070;10.012;2023-11-19T01:19:54;3.60;;;3.03;;
30420;SDS011;17218;54.070;10.012;2023-11-19T01:22:21;5.40;;;2.77;;
30420;SDS011;17218;54.070;10.012;2023-11-19T01:24:48;4.03;;;3.20;;
30420;SDS011;17218;54.070;10.012;2023-11-19T01:27:14;4.07;;;2.87;;
30420;SDS011;17218;54.070;10.012;2023-11-19T01:29:41;5.13;;;3.33;;
30420;SDS011;17218;54.070;10.012;2023-11-19T01:32:07;4.53;;;2.53;;
30420;SDS011;17218;54.070;10.012;2023-11-19T01:34:34;4.30;;;2.47;;
30420;SDS011;17218;54.070;10.012;2023-11-19T01:37:02;3.50;;;2.43;;
30420;SDS011;17218;54.070;10.012;2023-11-19T01:39:29;2.90;;;2.13;;
30420;SDS011;17218;54.070;10.012;2023-11-19T01:41:55;4.20;;;2.47;;
30420;SDS011;17218;54.070;10.012;2023-11-19T01:44:22;3.83;;;2.37;;
30420;SDS011;17218;54.070;10.012;2023-11-19T01:46:48;3.23;;;2.37;;
30420;SDS011;17218;54.070;10.012;2023-11-19T01:49:15;3.63;;;2.10;;
30420;SDS011;17218;54.070;10.012;2023-11-19T01:51:42;4.40;;;2.37;;
30420;SDS011;17218;54.070;10.012;2023-11-19T01:54:10;3.20;;;2.03;;
30420;SDS011;17218;54.070;10.012;2023-11-19T01:56:37;3.23;;;1.80;;
30420;SDS011;17218;54.070;10.012;2023-11-19T01:59:06;2.57;;;1.60;;
30420;SDS011;17218;54.070;10.012;2023-11-19T02:01:34;2.93;;;1.93;;
30420;SDS011;17218;54.070;10.012;2023-11-19T02:04:04;4.27;;;2.23;;
30420;SDS011;17218;54.070;10.012;2023-11-19T02:06:31;2.23;;;1.53;;
30420;SDS011;17218;54.070;10.012;2023-11-19T02:08:59;2.87;;;1.83;;
30420;SDS011;17218;54.070;10.012;2023-11-19T02:11:28;2.13;;;1.47;;
30420;SDS011;17218;54.070;10.012;2023-11-19T02:13:55;2.80;;;1.53;;
30420;SDS011;17218;54.070;10.012;2023-11-19T02:16:22;1.60;;;1.50;;
30420;SDS011;17218;54.070;10.012;2023-11-19T02:18:48;1.53;;;1.10;;
30420;SDS011;17218;54.070;10.012;2023-11-19T02:21:15;4.30;;;1.60;;
30420;SDS011;17218;54.070;10.012;2023-11-19T02:23:43;1.80;;;1.17;;
30420;SDS011;17218;54.070;10.012;2023-11-19T02:26:12;2.13;;;1.30;;
30420;SDS011;17218;54.070;10.012;2023-11-19T02:28:42;2.60;;;1.00;;
30420;SDS011;17218;54.070;10.012;2023-11-19T02:31:09;1.10;;;1.00;;
30420;SDS011;17218;54.070;10.012;2023-11-19T02:33:36;1.10;;;1.00;;
30420;SDS011;17218;54.070;10.012;2023-11-19T02:36:03;1.83;;;0.90;;
30420;SDS011;17218;54.070;10.012;2023-11-19T02:38:31;1.20;;;0.97;;
30420;SDS011;17218;54.070;10.012;2023-11-19T02:40:58;1.00;;;0.87;;
30420;SDS011;17218;54.070;10.012;2023-11-19T02:43:27;0.87;;;0.70;;
30420;SDS011;17218;54.070;10.012;2023-11-19T02:45:57;0.73;;;0.73;;
30420;SDS011;17218;54.070;10.012;2023-11-19T02:48:24;1.07;;;0.80;;
30420;SDS011;17218;54.070;10.012;2023-11-19T02:50:50;0.57;;;0.57;;
30420;SDS011;17218;54.070;10.012;2023-11-19T02:53:17;0.70;;;0.70;;
30420;SDS011;17218;54.070;10.012;2023-11-19T02:55:46;0.97;;;0.77;;
30420;SDS011;17218;54.070;10.012;2023-11-19T02:58:15;0.60;;;0.50;;
30420;SDS011;17218;54.070;10.012;2023-11-19T03:00:48;1.17;;;0.77;;
30420;SDS011;17218;54.070;10.012;2023-11-19T03:03:23;0.97;;;0.70;;
30420;SDS011;17218;54.070;10.012;2023-11-19T03:05:53;0.90;;;0.80;;
30420;SDS011;17218;54.070;10.012;2023-11-19T03:08:20;0.90;;;0.73;;
30420;SDS011;17218;54.070;10.012;2023-11-19T03:10:47;0.50;;;0.50;;
30420;SDS011;17218;54.070;10.012;2023-11-19T03:13:14;1.13;;;0.63;;
30420;SDS011;17218;54.070;10.012;2023-11-19T03:15:42;0.90;;;0.77;;
30420;SDS011;17218;54.070;10.012;2023-11-19T03:18:08;0.63;;;0.50;;
30420;SDS011;17218;54.070;10.012;2023-11-19T03:20:36;0.50;;;0.50;;
30420;SDS011;17218;54.070;10.012;2023-11-19T03:23:02;0.70;;;0.70;;
30420;SDS011;17218;54.070;10.012;2023-11-19T03:25:29;0.50;;;0.50;;
30420;SDS011;17218;54.070;10.012;2023-11-19T03:27:59;0.70;;;0.70;;
30420;SDS011;17218;54.070;10.012;2023-11-19T03:30:26;0.83;;;0.60;;
30420;SDS011;17218;54.070;10.012;2023-11-19T03:32:54;0.60;;;0.60;;
30420;SDS011;17218;54.070;10.012;2023-11-19T03:35:20;0.60;;;0.50;;
30420;SDS011;17218;54.070;10.012;2023-11-19T03:37:48;0.40;;;0.40;;
30420;SDS011;17218;54.070;10.012;2023-11-19T03:40:15;0.50;;;0.50;;
30420;SDS011;17218;54.070;10.012;2023-11-19T03:42:43;0.80;;;0.50;;
30420;SDS011;17218;54.070;10.012;2023-11-19T03:45:10;0.63;;;0.57;;
30420;SDS011;17218;54.070;10.012;2023-11-19T03:47:37;0.30;;;0.30;;
30420;SDS011;17218;54.070;10.012;2023-11-19T03:50:04;0.50;;;0.50;;
30420;SDS011;17218;54.070;10.012;2023-11-19T03:52:32;0.43;;;0.40;;
30420;SDS011;17218;54.070;10.012;2023-11-19T03:55:00;1.53;;;0.50;;
30420;SDS011;17218;54.070;10.012;2023-11-19T03:57:27;0.33;;;0.33;;
30420;SDS011;17218;54.070;10.012;2023-11-19T03:59:53;0.50;;;0.37;;
30420;SDS011;17218;54.070;10.012;2023-11-19T04:02:20;0.30;;;0.30;;
30420;SDS011;17218;54.070;10.012;2023-11-19T04:04:47;0.40;;;0.40;;
30420;SDS011;17218;54.070;10.012;2023-11-19T04:07:13;0.50;;;0.50;;
30420;SDS011;17218;54.070;10.012;2023-11-19T04:09:40;0.90;;;0.60;;
30420;SDS011;17218;54.070;10.012;2023-11-19T04:12:08;0.50;;;0.50;;
30420;SDS011;17218;54.070;10.012;2023-11-19T04:14:36;0.30;;;0.30;;
30420;SDS011;17218;54.070;10.012;2023-11-19T04:17:02;0.50;;;0.50;;
30420;SDS011;17218;54.070;10.012;2023-11-19T04:19:29;0.60;;;0.60;;
30420;SDS011;17218;54.070;10.012;2023-11-19T04:21:57;1.03;;;0.77;;
30420;SDS011;17218;54.070;10.012;2023-11-19T04:24:24;1.03;;;0.70;;
30420;SDS011;17218;54.070;10.012;2023-11-19T04:26:50;0.40;;;0.40;;
30420;SDS011;17218;54.070;10.012;2023-11-19T04:29:18;0.70;;;0.70;;
30420;SDS011;17218;54.070;10.012;2023-11-19T04:31:45;0.50;;;0.50;;
30420;SDS011;17218;54.070;10.012;2023-11-19T04:34:12;0.90;;;0.80;;
30420;SDS011;17218;54.070;10.012;2023-11-19T04:36:38;0.70;;;0.57;;
30420;SDS011;17218;54.070;10.012;2023-11-19T04:39:05;0.87;;;0.60;;
30420;SDS011;17218;54.070;10.012;2023-11-19T04:41:34;0.67;;;0.67;;
30420;SDS011;17218;54.070;10.012;2023-11-19T04:44:01;0.50;;;0.50;;
30420;SDS011;17218;54.070;10.012;2023-11-19T04:46:29;0.57;;;0.57;;
30420;SDS011;17218;54.070;10.012;2023-11-19T04:48:55;0.80;;;0.80;;
30420;SDS011;17218;54.070;10.012;2023-11-19T04:51:22;1.90;;;0.67;;
30420;SDS011;17218;54.070;10.012;2023-11-19T04:53:48;0.57;;;0.57;;
30420;SDS011;17218;54.070;10.012;2023-11-19T04:56:14;1.00;;;0.90;;
30420;SDS011;17218;54.070;10.012;2023-11-19T04:58:44;0.60;;;0.60;;
30420;SDS011;17218;54.070;10.012;2023-11-19T05:01:13;0.87;;;0.77;;
30420;SDS011;17218;54.070;10.012;2023-11-19T05:03:41;1.27;;;0.80;;
30420;SDS011;17218;54.070;10.012;2023-11-19T05:06:08;1.10;;;1.00;;
30420;SDS011;17218;54.070;10.012;2023-11-19T05:08:35;1.40;;;1.17;;
30420;SDS011;17218;54.070;10.012;2023-11-19T05:11:02;1.20;;;1.10;;
30420;SDS011;17218;54.070;10.012;2023-11-19T05:13:29;1.30;;;1.03;;
30420;SDS011;17218;54.070;10.012;2023-11-19T05:15:55;4.10;;;1.50;;
30420;SDS011;17218;54.070;10.012;2023-11-19T05:18:21;2.00;;;1.10;;
30420;SDS011;17218;54.070;10.012;2023-11-19T05:20:49;1.60;;;1.50;;
30420;SDS011;17218;54.070;10.012;2023-11-19T05:23:16;3.37;;;1.53;;
30420;SDS011;17218;54.070;10.012;2023-11-19T05:25:42;1.83;;;1.43;;
30420;SDS011;17218;54.070;10.012;2023-11-19T05:28:10;1.87;;;1.60;;
30420;SDS011;17218;54.070;10.012;2023-11-19T05:30:39;2.20;;;1.67;;
30420;SDS011;17218;54.070;10.012;2023-11-19T05:33:05;2.33;;;1.88;;
30420;SDS011;17218;54.070;10.012;2023-11-19T05:35:33;4.28;;;2.83;;
30420;SDS011;17218;54.070;10.012;2023-11-19T05:38:01;5.00;;;3.22;;
30420;SDS011;17218;54.070;10.012;2023-11-19T05:40:28;5.07;;;3.17;;
30420;SDS011;17218;54.070;10.012;2023-11-19T05:42:55;4.33;;;3.07;;
30420;SDS011;17218;54.070;10.012;2023-11-19T05:45:21;4.00;;;2.93;;
30420;SDS011;17218;54.070;10.012;2023-11-19T05:47:48;5.40;;;3.77;;
30420;SDS011;17218;54.070;10.012;2023-11-19T05:50:14;4.73;;;3.60;;
30420;SDS011;17218;54.070;10.012;2023-11-19T05:52:41;6.27;;;3.90;;
30420;SDS011;17218;54.070;10.012;2023-11-19T05:55:08;10.25;;;4.43;;
30420;SDS011;17218;54.070;10.012;2023-11-19T05:57:35;7.77;;;4.60;;
30420;SDS011;17218;54.070;10.012;2023-11-19T06:00:03;7.35;;;4.38;;
30420;SDS011;17218;54.070;10.012;2023-11-19T06:02:33;6.07;;;4.30;;
30420;SDS011;17218;54.070;10.012;2023-11-19T06:04:59;6.90;;;4.63;;
30420;SDS011;17218;54.070;10.012;2023-11-19T06:07:26;6.70;;;4.17;;
30420;SDS011;17218;54.070;10.012;2023-11-19T06:09:53;7.55;;;5.03;;
30420;SDS011;17218;54.070;10.012;2023-11-19T06:12:20;8.27;;;4.70;;
30420;SDS011;17218;54.070;10.012;2023-11-19T06:14:47;8.88;;;5.38;;
30420;SDS011;17218;54.070;10.012;2023-11-19T06:17:14;7.20;;;5.22;;
30420;SDS011;17218;54.070;10.012;2023-11-19T06:19:40;7.57;;;4.88;;
30420;SDS011;17218;54.070;10.012;2023-11-19T06:22:06;12.00;;;5.82;;
30420;SDS011;17218;54.070;10.012;2023-11-19T06:24:33;8.50;;;5.32;;
30420;SDS011;17218;54.070;10.012;2023-11-19T06:26:59;9.68;;;5.75;;
30420;SDS011;17218;54.070;10.012;2023-11-19T06:29:27;9.48;;;5.88;;
30420;SDS011;17218;54.070;10.012;2023-11-19T06:31:54;13.10;;;5.63;;
30420;SDS011;17218;54.070;10.012;2023-11-19T06:34:20;8.85;;;5.22;;
30420;SDS011;17218;54.070;10.012;2023-11-19T06:36:47;9.48;;;5.50;;
30420;SDS011;17218;54.070;10.012;2023-11-19T06:39:13;8.63;;;5.68;;
30420;SDS011;17218;54.070;10.012;2023-11-19T06:41:43;12.15;;;5.47;;
30420;SDS011;17218;54.070;10.012;2023-11-19T06:44:11;10.70;;;6.10;;
30420;SDS011;17218;54.070;10.012;2023-11-19T06:46:39;9.15;;;5.70;;
30420;SDS011;17218;54.070;10.012;2023-11-19T06:49:05;11.43;;;5.75;;
30420;SDS011;17218;54.070;10.012;2023-11-19T06:51:33;8.73;;;4.95;;
30420;SDS011;17218;54.070;10.012;2023-11-19T06:53:59;10.57;;;6.47;;
30420;SDS011;17218;54.070;10.012;2023-11-19T06:56:26;9.75;;;5.82;;
30420;SDS011;17218;54.070;10.012;2023-11-19T06:58:52;12.48;;;5.22;;
30420;SDS011;17218;54.070;10.012;2023-11-19T07:01:19;8.88;;;5.53;;
30420;SDS011;17218;54.070;10.012;2023-11-19T07:03:47;8.38;;;4.85;;
30420;SDS011;17218;54.070;10.012;2023-11-19T07:06:14;11.52;;;4.85;;
30420;SDS011;17218;54.070;10.012;2023-11-19T07:08:41;9.80;;;5.00;;
30420;SDS011;17218;54.070;10.012;2023-11-19T07:11:10;7.15;;;4.35;;
30420;SDS011;17218;54.070;10.012;2023-11-19T07:13:36;9.88;;;4.60;;
30420;SDS011;17218;54.070;10.012;2023-11-19T07:16:04;12.07;;;3.67;;
30420;SDS011;17218;54.070;10.012;2023-11-19T07:18:31;6.80;;;3.80;;
30420;SDS011;17218;54.070;10.012;2023-11-19T07:21:01;10.15;;;3.80;;
30420;SDS011;17218;54.070;10.012;2023-11-19T07:23:28;8.02;;;3.83;;
30420;SDS011;17218;54.070;10.012;2023-11-19T07:25:55;9.85;;;3.35;;
30420;SDS011;17218;54.070;10.012;2023-11-19T07:28:21;8.43;;;3.13;;
30420;SDS011;17218;54.070;10.012;2023-11-19T07:30:48;15.02;;;3.53;;
30420;SDS011;17218;54.070;10.012;2023-11-19T07:33:14;5.40;;;2.70;;
30420;SDS011;17218;54.070;10.012;2023-11-19T07:35:42;7.53;;;2.75;;
30420;SDS011;17218;54.070;10.012;2023-11-19T07:38:10;7.13;;;2.25;;
30420;SDS011;17218;54.070;10.012;2023-11-19T07:40:37;11.05;;;2.47;;
30420;SDS011;17218;54.070;10.012;2023-11-19T07:43:04;9.57;;;2.20;;
30420;SDS011;17218;54.070;10.012;2023-11-19T07:45:32;7.82;;;1.88;;
30420;SDS011;17218;54.070;10.012;2023-11-19T07:47:59;3.60;;;1.58;;
30420;SDS011;17218;54.070;10.012;2023-11-19T07:50:26;6.85;;;2.17;;
30420;SDS011;17218;54.070;10.012;2023-11-19T07:52:53;9.52;;;2.00;;
30420;SDS011;17218;54.070;10.012;2023-11-19T07:55:21;8.60;;;1.85;;
30420;SDS011;17218;54.070;10.012;2023-11-19T07:57:47;4.90;;;1.80;;
30420;SDS011;17218;54.070;10.012;2023-11-19T08:00:14;6.78;;;1.75;;
30420;SDS011;17218;54.070;10.012;2023-11-19T08:02:41;12.60;;;2.25;;
30420;SDS011;17218;54.070;10.012;2023-11-19T08:05:08;12.77;;;3.10;;
30420;SDS011;17218;54.070;10.012;2023-11-19T08:07:35;15.35;;;2.40;;
30420;SDS011;17218;54.070;10.012;2023-11-19T08:10:01;14.98;;;2.90;;
30420;SDS011;17218;54.070;10.012;2023-11-19T08:12:31;12.32;;;1.85;;
30420;SDS011;17218;54.070;10.012;2023-11-19T08:15:00;9.82;;;1.98;;
30420;SDS011;17218;54.070;10.012;2023-11-19T08:17:26;11.65;;;2.55;;
30420;SDS011;17218;54.070;10.012;2023-11-19T08:19:53;13.45;;;2.72;;
30420;SDS011;17218;54.070;10.012;2023-11-19T08:22:19;8.43;;;2.13;;
30420;SDS011;17218;54.070;10.012;2023-11-19T08:24:47;12.40;;;2.13;;
30420;SDS011;17218;54.070;10.012;2023-11-19T08:27:14;13.18;;;2.08;;
30420;SDS011;17218;54.070;10.012;2023-11-19T08:29:41;9.60;;;1.85;;
30420;SDS011;17218;54.070;10.012;2023-11-19T08:32:08;14.90;;;2.38;;
30420;SDS011;17218;54.070;10.012;2023-11-19T08:34:36;10.23;;;3.08;;
30420;SDS011;17218;54.070;10.012;2023-11-19T08:37:02;7.57;;;2.58;;
30420;SDS011;17218;54.070;10.012;2023-11-19T08:39:29;23.98;;;3.60;;
30420;SDS011;17218;54.070;10.012;2023-11-19T08:41:56;12.23;;;2.80;;
30420;SDS011;17218;54.070;10.012;2023-11-19T08:44:23;15.00;;;2.72;;
30420;SDS011;17218;54.070;10.012;2023-11-19T08:46:51;14.13;;;2.95;;
30420;SDS011;17218;54.070;10.012;2023-11-19T08:49:18;17.75;;;3.67;;
30420;SDS011;17218;54.070;10.012;2023-11-19T08:51:45;15.02;;;3.15;;
30420;SDS011;17218;54.070;10.012;2023-11-19T08:54:11;17.92;;;3.72;;
30420;SDS011;17218;54.070;10.012;2023-11-19T08:56:39;9.38;;;2.15;;
30420;SDS011;17218;54.070;10.012;2023-11-19T08:59:05;17.75;;;2.55;;
30420;SDS011;17218;54.070;10.012;2023-11-19T09:01:32;11.60;;;2.63;;
30420;SDS011;17218;54.070;10.012;2023-11-19T09:03:59;14.80;;;3.15;;
30420;SDS011;17218;54.070;10.012;2023-11-19T09:06:26;15.93;;;2.33;;
30420;SDS011;17218;54.070;10.012;2023-11-19T09:08:52;12.63;;;2.67;;
30420;SDS011;17218;54.070;10.012;2023-11-19T09:11:23;13.02;;;2.63;;
30420;SDS011;17218;54.070;10.012;2023-11-19T09:13:49;9.63;;;2.10;;
30420;SDS011;17218;54.070;10.012;2023-11-19T09:16:16;14.82;;;2.17;;
30420;SDS011;17218;54.070;10.012;2023-11-19T09:18:43;16.73;;;3.22;;
30420;SDS011;17218;54.070;10.012;2023-11-19T09:21:11;13.57;;;2.13;;
30420;SDS011;17218;54.070;10.012;2023-11-19T09:23:38;9.55;;;2.33;;
30420;SDS011;17218;54.070;10.012;2023-11-19T09:26:05;12.50;;;2.20;;
30420;SDS011;17218;54.070;10.012;2023-11-19T09:28:32;9.88;;;1.85;;
30420;SDS011;17218;54.070;10.012;2023-11-19T09:30:58;15.20;;;2.13;;
30420;SDS011;17218;54.070;10.012;2023-11-19T09:33:25;13.63;;;2.75;;
30420;SDS011;17218;54.070;10.012;2023-11-19T09:35:51;11.75;;;2.67;;
30420;SDS011;17218;54.070;10.012;2023-11-19T09:38:19;11.35;;;2.42;;
30420;SDS011;17218;54.070;10.012;2023-11-19T09:40:46;6.38;;;1.92;;
30420;SDS011;17218;54.070;10.012;2023-11-19T09:43:12;9.65;;;1.80;;
30420;SDS011;17218;54.070;10.012;2023-11-19T09:45:44;14.10;;;1.92;;
30420;SDS011;17218;54.070;10.012;2023-11-19T09:48:15;14.02;;;2.30;;
30420;SDS011;17218;54.070;10.012;2023-11-19T09:50:43;13.57;;;2.20;;
30420;SDS011;17218;54.070;10.012;2023-11-19T09:53:10;9.93;;;2.40;;
30420;SDS011;17218;54.070;10.012;2023-11-19T09:55:38;7.60;;;1.80;;
30420;SDS011;17218;54.070;10.012;2023-11-19T09:58:05;14.25;;;2.05;;
30420;SDS011;17218;54.070;10.012;2023-11-19T10:00:32;12.57;;;2.13;;
30420;SDS011;17218;54.070;10.012;2023-11-19T10:02:59;15.05;;;2.00;;
30420;SDS011;17218;54.070;10.012;2023-11-19T10:05:26;12.55;;;3.22;;
30420;SDS011;17218;54.070;10.012;2023-11-19T10:07:53;14.98;;;2.88;;
30420;SDS011;17218;54.070;10.012;2023-11-19T10:10:20;13.40;;;2.35;;
30420;SDS011;17218;54.070;10.012;2023-11-19T10:12:50;13.02;;;2.38;;
30420;SDS011;17218;54.070;10.012;2023-11-19T10:15:19;13.85;;;2.10;;
30420;SDS011;17218;54.070;10.012;2023-11-19T10:17:47;15.73;;;2.80;;
30420;SDS011;17218;54.070;10.012;2023-11-19T10:20:13;7.28;;;1.85;;
30420;SDS011;17218;54.070;10.012;2023-11-19T10:22:40;23.65;;;2.40;;
30420;SDS011;17218;54.070;10.012;2023-11-19T10:25:08;18.80;;;2.50;;
30420;SDS011;17218;54.070;10.012;2023-11-19T10:27:49;12.25;;;2.58;;
30420;SDS011;17218;54.070;10.012;2023-11-19T10:30:17;23.77;;;3.53;;
30420;SDS011;17218;54.070;10.012;2023-11-19T10:32:44;15.77;;;2.47;;
30420;SDS011;17218;54.070;10.012;2023-11-19T10:35:11;20.63;;;2.67;;
30420;SDS011;17218;54.070;10.012;2023-11-19T10:37:38;18.00;;;2.83;;
30420;SDS011;17218;54.070;10.012;2023-11-19T10:40:06;15.80;;;2.30;;
30420;SDS011;17218;54.070;10.012;2023-11-19T10:42:35;14.32;;;2.40;;
30420;SDS011;17218;54.070;10.012;2023-11-19T10:45:03;11.48;;;2.60;;
30420;SDS011;17218;54.070;10.012;2023-11-19T10:47:30;14.57;;;2.80;;
30420;SDS011;17218;54.070;10.012;2023-11-19T10:49:59;11.52;;;2.17;;
30420;SDS011;17218;54.070;10.012;2023-11-19T10:52:25;8.88;;;2.55;;
30420;SDS011;17218;54.070;10.012;2023-11-19T10:54:53;9.80;;;1.80;;
30420;SDS011;17218;54.070;10.012;2023-11-19T10:57:25;11.50;;;2.30;;
30420;SDS011;17218;54.070;10.012;2023-11-19T11:00:02;13.02;;;1.70;;
30420;SDS011;17218;54.070;10.012;2023-11-19T11:02:35;11.48;;;2.10;;
30420;SDS011;17218;54.070;10.012;2023-11-19T11:05:07;10.55;;;2.13;;
30420;SDS011;17218;54.070;10.012;2023-11-19T11:07:34;15.27;;;3.22;;
30420;SDS011;17218;54.070;10.012;2023-11-19T11:10:01;11.98;;;2.05;;
30420;SDS011;17218;54.070;10.012;2023-11-19T11:12:28;13.75;;;2.05;;
30420;SDS011;17218;54.070;10.012;2023-11-19T11:14:58;8.43;;;2.20;;
30420;SDS011;17218;54.070;10.012;2023-11-19T11:17:26;9.10;;;1.77;;
30420;SDS011;17218;54.070;10.012;2023-11-19T11:19:54;13.05;;;2.30;;
30420;SDS011;17218;54.070;10.012;2023-11-19T11:22:21;8.55;;;2.10;;
30420;SDS011;17218;54.070;10.012;2023-11-19T11:25:00;15.18;;;2.45;;
30420;SDS011;17218;54.070;10.012;2023-11-19T11:28:05;12.88;;;3.13;;
30420;SDS011;17218;54.070;10.012;2023-11-19T11:30:46;8.13;;;2.78;;
30420;SDS011;17218;54.070;10.012;2023-11-19T11:33:29;13.35;;;2.17;;
30420;SDS011;17218;54.070;10.012;2023-11-19T11:36:08;11.35;;;2.25;;
30420;SDS011;17218;54.070;10.012;2023-11-19T11:38:40;17.20;;;2.67;;
30420;SDS011;17218;54.070;10.012;2023-11-19T11:41:17;10.32;;;2.13;;
30420;SDS011;17218;54.070;10.012;2023-11-19T11:43:46;10.50;;;1.58;;
30420;SDS011;17218;54.070;10.012;2023-11-19T11:49:18;10.88;;;2.35;;
30420;SDS011;17218;54.070;10.012;2023-11-19T11:51:57;13.73;;;1.98;;
30420;SDS011;17218;54.070;10.012;2023-11-19T11:54:28;10.82;;;2.40;;
30420;SDS011;17218;54.070;10.012;2023-11-19T11:57:02;11.18;;;2.03;;
30420;SDS011;17218;54.070;10.012;2023-11-19T11:59:31;13.98;;;2.35;;
30420;SDS011;17218;54.070;10.012;2023-11-19T12:02:03;11.82;;;1.95;;
30420;SDS011;17218;54.070;10.012;2023-11-19T12:04:31;13.45;;;3.60;;
30420;SDS011;17218;54.070;10.012;2023-11-19T12:07:04;9.77;;;2.10;;
30420;SDS011;17218;54.070;10.012;2023-11-19T12:09:31;15.80;;;2.60;;
30420;SDS011;17218;54.070;10.012;2023-11-19T12:12:07;14.20;;;2.78;;
30420;SDS011;17218;54.070;10.012;2023-11-19T12:20:18;7.95;;;2.40;;
30420;SDS011;17218;54.070;10.012;2023-11-19T12:22:46;15.55;;;2.45;;
30420;SDS011;17218;54.070;10.012;2023-11-19T12:25:14;12.10;;;1.63;;
30420;SDS011;17218;54.070;10.012;2023-11-19T12:27:43;9.45;;;1.40;;
30420;SDS011;17218;54.070;10.012;2023-11-19T12:30:11;9.25;;;1.55;;
30420;SDS011;17218;54.070;10.012;2023-11-19T12:32:38;12.95;;;2.65;;
30420;SDS011;17218;54.070;10.012;2023-11-19T12:35:06;9.55;;;2.33;;
30420;SDS011;17218;54.070;10.012;2023-11-19T12:37:39;13.60;;;1.55;;
30420;SDS011;17218;54.070;10.012;2023-11-19T12:40:10;13.05;;;2.17;;
30420;SDS011;17218;54.070;10.012;2023-11-19T12:42:40;11.07;;;1.80;;
30420;SDS011;17218;54.070;10.012;2023-11-19T12:45:07;12.73;;;2.22;;
30420;SDS011;17218;54.070;10.012;2023-11-19T12:47:35;13.05;;;1.98;;
30420;SDS011;17218;54.070;10.012;2023-11-19T12:50:02;8.90;;;1.80;;
30420;SDS011;17218;54.070;10.012;2023-11-19T12:52:29;7.95;;;1.88;;
30420;SDS011;17218;54.070;10.012;2023-11-19T12:54:56;11.65;;;1.77;;
30420;SDS011;17218;54.070;10.012;2023-11-19T12:57:35;8.13;;;1.55;;
30420;SDS011;17218;54.070;10.012;2023-11-19T13:00:02;11.85;;;2.03;;
30420;SDS011;17218;54.070;10.012;2023-11-19T13:02:44;11.38;;;1.55;;
30420;SDS011;17218;54.070;10.012;2023-11-19T13:05:24;4.85;;;1.15;;
30420;SDS011;17218;54.070;10.012;2023-11-19T13:07:57;5.57;;;1.52;;
30420;SDS011;17218;54.070;10.012;2023-11-19T13:10:26;10.18;;;1.48;;
30420;SDS011;17218;54.070;10.012;2023-11-19T13:12:59;6.55;;;1.50;;
30420;SDS011;17218;54.070;10.012;2023-11-19T13:15:26;6.90;;;1.67;;
30420;SDS011;17218;54.070;10.012;2023-11-19T13:17:53;12.38;;;1.90;;
30420;SDS011;17218;54.070;10.012;2023-11-19T13:20:20;6.35;;;1.08;;
30420;SDS011;17218;54.070;10.012;2023-11-19T13:22:53;7.40;;;1.85;;
30420;SDS011;17218;54.070;10.012;2023-11-19T13:25:21;12.38;;;1.83;;
30420;SDS011;17218;54.070;10.012;2023-11-19T13:27:49;10.35;;;1.92;;
30420;SDS011;17218;54.070;10.012;2023-11-19T13:30:16;14.30;;;2.88;;
30420;SDS011;17218;54.070;10.012;2023-11-19T13:32:43;10.30;;;2.47;;
30420;SDS011;17218;54.070;10.012;2023-11-19T13:35:09;11.05;;;1.67;;
30420;SDS011;17218;54.070;10.012;2023-11-19T13:37:36;17.83;;;2.92;;
30420;SDS011;17218;54.070;10.012;2023-11-19T13:40:02;11.23;;;2.33;;
30420;SDS011;17218;54.070;10.012;2023-11-19T13:42:29;16.02;;;2.47;;
30420;SDS011;17218;54.070;10.012;2023-11-19T13:44:57;10.05;;;2.15;;
30420;SDS011;17218;54.070;10.012;2023-11-19T13:47:24;11.73;;;1.85;;
30420;SDS011;17218;54.070;10.012;2023-11-19T13:49:50;6.80;;;2.00;;
30420;SDS011;17218;54.070;10.012;2023-11-19T13:52:17;13.68;;;2.60;;
30420;SDS011;17218;54.070;10.012;2023-11-19T13:54:44;11.55;;;2.97;;
30420;SDS011;17218;54.070;10.012;2023-11-19T13:57:10;10.65;;;2.45;;
30420;SDS011;17218;54.070;10.012;2023-11-19T13:59:39;7.35;;;2.08;;
30420;SDS011;17218;54.070;10.012;2023-11-19T14:02:07;13.75;;;2.22;;
30420;SDS011;17218;54.070;10.012;2023-11-19T14:04:34;10.82;;;2.38;;
30420;SDS011;17218;54.070;10.012;2023-11-19T14:07:01;7.47;;;2.22;;
30420;SDS011;17218;54.070;10.012;2023-11-19T14:09:28;11.38;;;2.45;;
30420;SDS011;17218;54.070;10.012;2023-11-19T14:11:55;14.20;;;2.03;;
30420;SDS011;17218;54.070;10.012;2023-11-19T14:14:22;7.90;;;2.10;;
30420;SDS011;17218;54.070;10.012;2023-11-19T14:16:49;11.23;;;2.08;;
30420;SDS011;17218;54.070;10.012;2023-11-19T14:19:17;7.35;;;1.70;;
30420;SDS011;17218;54.070;10.012;2023-11-19T14:21:43;10.98;;;2.00;;
30420;SDS011;17218;54.070;10.012;2023-11-19T14:24:10;8.50;;;1.50;;
30420;SDS011;17218;54.070;10.012;2023-11-19T14:26:36;6.15;;;1.35;;
30420;SDS011;17218;54.070;10.012;2023-11-19T14:29:03;10.52;;;1.48;;
30420;SDS011;17218;54.070;10.012;2023-11-19T14:31:29;6.70;;;2.25;;
30420;SDS011;17218;54.070;10.012;2023-11-19T14:33:57;9.68;;;1.75;;
30420;SDS011;17218;54.070;10.012;2023-11-19T14:36:25;5.40;;;1.20;;
30420;SDS011;17218;54.070;10.012;2023-11-19T14:38:52;13.68;;;2.53;;
30420;SDS011;17218;54.070;10.012;2023-11-19T14:41:19;11.90;;;2.05;;
30420;SDS011;17218;54.070;10.012;2023-11-19T14:43:44;9.75;;;2.03;;